Omega, Louisiana
Current Conditions -  °F | °C
As of 11:53 PM on Saturday 22 Nov 2014 (Local Time) from KTVR Reporting Station
Overcast Overcast  
Wind Chill: 61°   Ceiling: 1700
Heat Index: 61°   Visibility: 10mi
Dew Point: 56°   Wind: 9mph
Humidity: 83%   Direction: 130°SE
Pressure: 29.89"   Gusts: NA
Location:  32.5752°N, 91.2825°W
Report Text: KTVR 230553Z AUTO 13008KT 10SM OVC017 16/13 A2989 RMK AO2 SLP129 T01610133 10178 20150 402170111 56022
Loading
Personal Weather Stations






























Interactive Weather Map New forecast layout! Learn more

10-Day Weather Forecast

Advertisements
Track Severe Weather on mobile